Thursday, June 29, 2017, 5:06 AM EDT

KFYJ, West Point, Middle Peninsula Regional Airport

Location: Shacklefords, VA, United States Lat: 37.521
Local Time: 5:06 AM EDT ( 9:06 GMT) Lon: -76.764
Time Zone: US/Eastern Elev: 22 ft

Show me the last for .
Show Decoded

2017-06-29 04:35 METAR KFYJ 290835Z AUTO 00000KT 10SM CLR 18/16 A3020 RMK AO2 T01780157 =
2017-06-29 04:15 METAR KFYJ 290815Z AUTO 14003KT 10SM CLR 18/16 A3020 RMK AO2 T01760158 =
2017-06-29 03:55 METAR KFYJ 290755Z AUTO 00000KT 10SM CLR 18/16 A3020 RMK AO2 T01800156 =
2017-06-29 03:35 METAR KFYJ 290735Z AUTO 00000KT 10SM CLR 18/16 A3020 RMK AO2 T01780156 =
2017-06-29 03:15 METAR KFYJ 290715Z AUTO 00000KT 10SM CLR 18/15 A3021 RMK AO2 T01810150 =
2017-06-29 02:55 METAR KFYJ 290655Z AUTO 15003KT 10SM CLR 19/15 A3020 RMK AO2 T01850150 =
2017-06-29 02:35 METAR KFYJ 290635Z AUTO 15004KT 10SM CLR 19/15 A3019 RMK AO2 T01880148 =
2017-06-29 02:15 METAR KFYJ 290615Z AUTO 16003KT 10SM CLR 19/15 A3020 RMK AO2 T01870145 =
2017-06-29 01:55 METAR KFYJ 290555Z AUTO 16004KT 10SM CLR 19/14 A3020 RMK AO2 T01910142 10225
                 20189 402720110 =
2017-06-29 01:35 METAR KFYJ 290535Z AUTO 15004KT 10SM CLR 19/14 A3020 RMK AO2 T01910138 =
2017-06-29 01:15 METAR KFYJ 290515Z AUTO 16004KT 10SM CLR 19/14 A3020 RMK AO2 T01900135 =
2017-06-29 00:55 METAR KFYJ 290455Z AUTO 16004KT 10SM CLR 19/13 A3020 RMK AO2 T01910127 =
2017-06-29 00:35 METAR KFYJ 290435Z AUTO 16005KT 10SM CLR 20/12 A3021 RMK AO2 T01960120 =
2017-06-29 00:15 METAR KFYJ 290415Z AUTO 16005KT 10SM CLR 19/12 A3021 RMK AO2 T01930122 =
2017-06-28 23:55 METAR KFYJ 290355Z AUTO 16004KT 10SM CLR 20/12 A3021 RMK AO2 T01960121 =
2017-06-28 23:35 METAR KFYJ 290335Z AUTO 17005KT 10SM CLR 21/12 A3021 RMK AO2 T02050121 =
2017-06-28 23:15 METAR KFYJ 290315Z AUTO 14007KT 10SM CLR 19/13 A3021 RMK AO2 T01920125 =
2017-06-28 22:55 METAR KFYJ 290255Z AUTO 12004KT 10SM CLR 19/12 A3021 RMK AO2 T01920123 =
2017-06-28 22:35 METAR KFYJ 290235Z AUTO 12004KT 10SM CLR 19/12 A3021 RMK AO2 T01930123 =
2017-06-28 22:15 METAR KFYJ 290215Z AUTO 12005KT 10SM CLR 19/13 A3021 RMK AO2 T01910125 =
2017-06-28 21:55 METAR KFYJ 290155Z AUTO 11005KT 10SM CLR 20/12 A3020 RMK AO2 T01960124 =
2017-06-28 21:35 METAR KFYJ 290135Z AUTO 12006KT 10SM CLR 20/13 A3019 RMK AO2 T01960125 =
2017-06-28 21:15 METAR KFYJ 290115Z AUTO 11005KT 10SM CLR 20/13 A3019 RMK AO2 T02030125 =
2017-06-28 20:55 METAR KFYJ 290055Z AUTO 12007KT 10SM CLR 21/13 A3019 RMK AO2 T02070126 =
2017-06-28 20:35 METAR KFYJ 290035Z AUTO 12008KT 10SM CLR 22/13 A3019 RMK AO2 T02150125 =
2017-06-28 20:15 METAR KFYJ 290015Z AUTO 12005KT 10SM CLR 22/12 A3018 RMK AO2 T02190122 =
2017-06-28 19:50 METAR KFYJ 282350Z AUTO 11006KT 10SM CLR 23/13 A3019 RMK AO2 T02260129 10272
                 20225 =
2017-06-28 19:35 METAR KFYJ 282335Z AUTO 10005KT 10SM CLR 23/13 A3019 RMK AO2 T02300128 =
2017-06-28 19:15 METAR KFYJ 282315Z AUTO 10006KT 10SM CLR 24/12 A3018 RMK AO2 T02420123 =
2017-06-28 18:55 METAR KFYJ 282255Z AUTO 11007KT 10SM CLR 25/12 A3018 RMK AO2 T02500120 =
2017-06-28 18:35 METAR KFYJ 282235Z AUTO 14006KT 10SM CLR 26/12 A3018 RMK AO2 T02550117 =
2017-06-28 18:15 METAR KFYJ 282215Z AUTO 17007KT 10SM CLR 26/11 A3018 RMK AO2 T02570110 =
2017-06-28 17:55 METAR KFYJ 282155Z AUTO 18006KT 10SM CLR 26/11 A3018 RMK AO2 T02600108 =
2017-06-28 17:35 METAR KFYJ 282135Z AUTO 17005KT 10SM CLR 27/09 A3018 RMK AO2 T02660085 =
2017-06-28 17:15 METAR KFYJ 282115Z AUTO 00000KT 10SM CLR 26/08 A3019 RMK AO2 T02640075 =
2017-06-28 16:55 METAR KFYJ 282055Z AUTO 00000KT 10SM CLR 27/08 A3019 RMK AO2 T02650079 =
2017-06-28 16:35 METAR KFYJ 282035Z AUTO 16004KT 10SM CLR 27/08 A3019 RMK AO2 T02650077 =
2017-06-28 16:15 METAR KFYJ 282015Z AUTO 00000KT 10SM CLR 27/07 A3020 RMK AO2 T02690071 =
2017-06-28 15:55 METAR KFYJ 281955Z AUTO 17005KT 10SM CLR 27/08 A3020 RMK AO2 T02650076 =
2017-06-28 15:35 METAR KFYJ 281935Z AUTO 11003KT 10SM CLR 27/07 A3020 RMK AO2 T02650065 =
2017-06-28 15:15 METAR KFYJ 281915Z AUTO 22004KT 10SM CLR 27/07 A3020 RMK AO2 T02650067 =
2017-06-28 14:55 METAR KFYJ 281855Z AUTO 26006KT 10SM CLR 26/07 A3021 RMK AO2 T02600067 =
2017-06-28 14:35 METAR KFYJ 281835Z AUTO 25006KT 10SM CLR 26/08 A3021 RMK AO2 T02610078 =
2017-06-28 14:15 METAR KFYJ 281815Z AUTO 26004KT 10SM CLR 26/08 A3020 RMK AO2 T02600078 =
2017-06-28 13:55 METAR KFYJ 281755Z AUTO 28003KT 10SM CLR 26/08 A3020 RMK AO2 T02610079 10262
                 20187 =
2017-06-28 13:35 METAR KFYJ 281735Z AUTO 34004KT 10SM CLR 26/08 A3021 RMK AO2 T02610078 =
2017-06-28 13:15 METAR KFYJ 281715Z AUTO 36006KT 10SM CLR 25/07 A3021 RMK AO2 T02530071 =
2017-06-28 12:55 METAR KFYJ 281655Z AUTO 00000KT 10SM CLR 25/07 A3021 RMK AO2 T02480066 =
2017-06-28 12:35 METAR KFYJ 281635Z AUTO 35004KT 10SM CLR 25/07 A3022 RMK AO2 T02540067 =
2017-06-28 12:15 METAR KFYJ 281615Z AUTO 00000KT 10SM CLR 25/07 A3022 RMK AO2 T02500071 =
2017-06-28 11:55 METAR KFYJ 281555Z AUTO 29003KT 10SM CLR 25/07 A3022 RMK AO2 T02480068 =
2017-06-28 11:35 METAR KFYJ 281535Z AUTO 32005KT 10SM CLR 25/07 A3022 RMK AO2 T02450066 =
2017-06-28 11:15 METAR KFYJ 281515Z AUTO 05003KT 10SM CLR 24/09 A3022 RMK AO2 T02410086 =
2017-06-28 10:50 METAR KFYJ 281450Z AUTO 05004KT 10SM CLR 24/09 A3021 RMK AO2 T02400088 =
2017-06-28 10:35 METAR KFYJ 281435Z AUTO 01003KT 10SM CLR 24/09 A3021 RMK AO2 T02380091 =
2017-06-28 10:15 METAR KFYJ 281415Z AUTO 04006KT 10SM CLR 24/09 A3021 RMK AO2 T02350086 =
2017-06-28 09:55 METAR KFYJ 281355Z AUTO 05004KT 10SM CLR 23/10 A3021 RMK AO2 T02300095 =
2017-06-28 09:35 METAR KFYJ 281335Z AUTO 00000KT 10SM CLR 23/12 A3020 RMK AO2 T02260120 =
2017-06-28 09:15 METAR KFYJ 281315Z AUTO 04003KT 10SM CLR 22/13 A3020 RMK AO2 T02220126 =
2017-06-28 08:55 METAR KFYJ 281255Z AUTO 36003KT 10SM CLR 21/13 A3021 RMK AO2 T02130132 =
2017-06-28 08:35 METAR KFYJ 281235Z AUTO 00000KT 10SM CLR 21/14 A3021 RMK AO2 T02050136 =
2017-06-28 08:15 METAR KFYJ 281215Z AUTO 00000KT 10SM CLR 20/15 A3021 RMK AO2 T01970145 =
2017-06-28 07:55 METAR KFYJ 281155Z AUTO 00000KT 10SM CLR 19/15 A3020 RMK AO2 T01860145 10186
                 20110 =
2017-06-28 07:35 METAR KFYJ 281135Z AUTO 00000KT 10SM CLR 17/15 A3020 RMK AO2 T01740154 =
2017-06-28 07:15 METAR KFYJ 281115Z AUTO 00000KT 10SM CLR 15/14 A3019 RMK AO2 T01510142 =
2017-06-28 06:50 METAR KFYJ 281050Z AUTO 00000KT 10SM CLR 13/13 A3018 RMK AO2 T01320127 =
2017-06-28 06:35 METAR KFYJ 281035Z AUTO 00000KT 10SM CLR 12/11 A3018 RMK AO2 T01180113 =
2017-06-28 06:15 METAR KFYJ 281015Z AUTO 00000KT 10SM CLR 11/11 A3017 RMK AO2 T01140108 =
2017-06-28 05:55 METAR KFYJ 280955Z AUTO 00000KT 10SM CLR 13/12 A3016 RMK AO2 T01260121 =
2017-06-28 05:35 METAR KFYJ 280935Z AUTO 00000KT 10SM CLR 12/11 A3016 RMK AO2 T01170110 =
2017-06-28 05:15 METAR KFYJ 280915Z AUTO 00000KT 10SM CLR 11/10 A3016 RMK AO2 T01100103 =

Support USWX by starting your Amazon purchase here.